sensor_id;sensor_type;location;lat;lon;timestamp;pressure;altitude;pressure_sealevel;temperature;humidity
65384;BME280;51986;52.788;41.368;2024-02-26T00:02:11;101284.53;;;-6.11;53.91
65384;BME280;51986;52.788;41.368;2024-02-26T00:04:38;101270.06;;;-6.46;54.46
65384;BME280;51986;52.788;41.368;2024-02-26T00:07:05;101269.56;;;-6.31;54.60
65384;BME280;51986;52.788;41.368;2024-02-26T00:09:32;101271.53;;;-6.21;54.39
65384;BME280;51986;52.788;41.368;2024-02-26T00:11:59;101274.53;;;-6.41;54.71
65384;BME280;51986;52.788;41.368;2024-02-26T00:14:26;101249.63;;;-6.41;55.26
65384;BME280;51986;52.788;41.368;2024-02-26T00:16:54;101262.44;;;-6.57;55.23
65384;BME280;51986;52.788;41.368;2024-02-26T00:19:21;101246.13;;;-6.34;55.22
65384;BME280;51986;52.788;41.368;2024-02-26T00:21:48;101261.91;;;-6.43;54.87
65384;BME280;51986;52.788;41.368;2024-02-26T00:24:15;101252.25;;;-6.52;55.02
65384;BME280;51986;52.788;41.368;2024-02-26T00:26:42;101265.88;;;-6.63;55.58
65384;BME280;51986;52.788;41.368;2024-02-26T00:29:09;101260.84;;;-6.58;55.12
65384;BME280;51986;52.788;41.368;2024-02-26T00:31:37;101212.53;;;-6.61;55.72
65384;BME280;51986;52.788;41.368;2024-02-26T00:34:04;101235.63;;;-6.90;55.56
65384;BME280;51986;52.788;41.368;2024-02-26T00:36:31;101246.00;;;-6.56;55.70
65384;BME280;51986;52.788;41.368;2024-02-26T00:38:58;101258.16;;;-6.52;55.70
65384;BME280;51986;52.788;41.368;2024-02-26T00:41:25;101260.44;;;-6.38;55.40
65384;BME280;51986;52.788;41.368;2024-02-26T00:43:52;101255.72;;;-6.58;55.01
65384;BME280;51986;52.788;41.368;2024-02-26T00:46:19;101244.81;;;-6.66;55.95
65384;BME280;51986;52.788;41.368;2024-02-26T00:48:46;101248.06;;;-6.82;55.93
65384;BME280;51986;52.788;41.368;2024-02-26T00:51:13;101265.34;;;-6.66;56.22
65384;BME280;51986;52.788;41.368;2024-02-26T00:53:40;101273.81;;;-6.65;55.98
65384;BME280;51986;52.788;41.368;2024-02-26T00:56:07;101264.47;;;-6.71;56.36
65384;BME280;51986;52.788;41.368;2024-02-26T00:58:34;101239.00;;;-6.61;55.55
65384;BME280;51986;52.788;41.368;2024-02-26T01:01:04;101238.16;;;-6.78;56.05
65384;BME280;51986;52.788;41.368;2024-02-26T01:03:31;101230.19;;;-6.65;56.50
65384;BME280;51986;52.788;41.368;2024-02-26T01:05:58;101260.34;;;-6.72;55.80
65384;BME280;51986;52.788;41.368;2024-02-26T01:08:26;101236.44;;;-6.73;56.04
65384;BME280;51986;52.788;41.368;2024-02-26T01:10:53;101259.25;;;-6.76;56.56
65384;BME280;51986;52.788;41.368;2024-02-26T01:13:20;101251.31;;;-6.75;55.89
65384;BME280;51986;52.788;41.368;2024-02-26T01:15:47;101261.63;;;-6.86;56.37
65384;BME280;51986;52.788;41.368;2024-02-26T01:18:14;101242.25;;;-6.77;56.59
65384;BME280;51986;52.788;41.368;2024-02-26T01:20:41;101224.31;;;-6.77;56.60
65384;BME280;51986;52.788;41.368;2024-02-26T01:23:08;101258.13;;;-6.80;56.17
65384;BME280;51986;52.788;41.368;2024-02-26T01:25:35;101267.72;;;-6.76;55.94
65384;BME280;51986;52.788;41.368;2024-02-26T01:28:02;101237.50;;;-6.85;56.40
65384;BME280;51986;52.788;41.368;2024-02-26T01:30:29;101245.31;;;-6.80;56.75
65384;BME280;51986;52.788;41.368;2024-02-26T01:32:57;101223.38;;;-7.00;56.91
65384;BME280;51986;52.788;41.368;2024-02-26T01:35:24;101218.41;;;-6.78;56.63
65384;BME280;51986;52.788;41.368;2024-02-26T01:37:51;101209.72;;;-6.77;56.24
65384;BME280;51986;52.788;41.368;2024-02-26T01:40:18;101257.56;;;-6.82;56.70
65384;BME280;51986;52.788;41.368;2024-02-26T01:42:45;101237.03;;;-6.82;56.45
65384;BME280;51986;52.788;41.368;2024-02-26T01:45:16;101230.44;;;-6.78;56.80
65384;BME280;51986;52.788;41.368;2024-02-26T01:47:43;101238.16;;;-6.78;56.18
65384;BME280;51986;52.788;41.368;2024-02-26T01:50:13;101243.13;;;-7.12;57.54
65384;BME280;51986;52.788;41.368;2024-02-26T01:52:40;101216.31;;;-6.81;56.93
65384;BME280;51986;52.788;41.368;2024-02-26T01:55:07;101235.19;;;-6.99;57.35
65384;BME280;51986;52.788;41.368;2024-02-26T01:57:35;101223.81;;;-6.91;56.88
65384;BME280;51986;52.788;41.368;2024-02-26T02:00:03;101226.53;;;-7.09;56.79
65384;BME280;51986;52.788;41.368;2024-02-26T02:02:31;101192.88;;;-7.25;57.32
65384;BME280;51986;52.788;41.368;2024-02-26T02:04:58;101227.94;;;-7.02;56.67
65384;BME280;51986;52.788;41.368;2024-02-26T02:07:26;101238.34;;;-7.08;56.92
65384;BME280;51986;52.788;41.368;2024-02-26T02:09:53;101206.59;;;-7.19;57.80
65384;BME280;51986;52.788;41.368;2024-02-26T02:12:21;101221.41;;;-7.21;57.24
65384;BME280;51986;52.788;41.368;2024-02-26T02:14:48;101203.66;;;-7.11;57.02
65384;BME280;51986;52.788;41.368;2024-02-26T02:17:15;101214.81;;;-7.17;56.65
65384;BME280;51986;52.788;41.368;2024-02-26T02:19:42;101224.09;;;-7.28;57.13
65384;BME280;51986;52.788;41.368;2024-02-26T02:22:09;101219.94;;;-7.17;56.96
65384;BME280;51986;52.788;41.368;2024-02-26T02:24:37;101161.22;;;-7.30;57.65
65384;BME280;51986;52.788;41.368;2024-02-26T02:27:04;101219.75;;;-7.27;57.69
65384;BME280;51986;52.788;41.368;2024-02-26T02:29:31;101204.03;;;-7.19;57.79
65384;BME280;51986;52.788;41.368;2024-02-26T02:31:59;101223.97;;;-7.21;57.55
65384;BME280;51986;52.788;41.368;2024-02-26T02:34:28;101204.84;;;-7.42;57.92
65384;BME280;51986;52.788;41.368;2024-02-26T02:36:55;101213.84;;;-7.28;57.96
65384;BME280;51986;52.788;41.368;2024-02-26T02:39:22;101188.06;;;-7.21;56.85
65384;BME280;51986;52.788;41.368;2024-02-26T02:41:49;101240.38;;;-7.22;57.12
65384;BME280;51986;52.788;41.368;2024-02-26T02:44:16;101216.91;;;-7.02;57.46
65384;BME280;51986;52.788;41.368;2024-02-26T02:46:43;101220.94;;;-7.06;57.18
65384;BME280;51986;52.788;41.368;2024-02-26T02:49:10;101218.16;;;-7.05;56.10
65384;BME280;51986;52.788;41.368;2024-02-26T02:51:37;101205.34;;;-7.17;56.59
65384;BME280;51986;52.788;41.368;2024-02-26T02:54:04;101233.09;;;-7.25;57.33
65384;BME280;51986;52.788;41.368;2024-02-26T02:56:32;101221.09;;;-7.25;56.57
65384;BME280;51986;52.788;41.368;2024-02-26T02:58:59;101215.34;;;-7.43;57.25
65384;BME280;51986;52.788;41.368;2024-02-26T03:01:26;101201.16;;;-7.34;57.20
65384;BME280;51986;52.788;41.368;2024-02-26T03:03:53;101208.84;;;-7.34;57.49
65384;BME280;51986;52.788;41.368;2024-02-26T03:06:20;101214.25;;;-7.07;56.94
65384;BME280;51986;52.788;41.368;2024-02-26T03:08:48;101185.94;;;-7.53;57.58
65384;BME280;51986;52.788;41.368;2024-02-26T03:11:15;101194.84;;;-7.67;57.62
65384;BME280;51986;52.788;41.368;2024-02-26T03:13:42;101242.97;;;-7.46;57.99
65384;BME280;51986;52.788;41.368;2024-02-26T03:16:09;101215.81;;;-7.58;57.82
65384;BME280;51986;52.788;41.368;2024-02-26T03:18:39;101214.66;;;-7.51;57.82
65384;BME280;51986;52.788;41.368;2024-02-26T03:21:06;101217.22;;;-7.51;57.99
65384;BME280;51986;52.788;41.368;2024-02-26T03:23:34;101185.34;;;-7.55;57.66
65384;BME280;51986;52.788;41.368;2024-02-26T03:26:01;101209.66;;;-7.46;57.34
65384;BME280;51986;52.788;41.368;2024-02-26T03:28:28;101209.28;;;-7.37;56.64
65384;BME280;51986;52.788;41.368;2024-02-26T03:30:55;101204.75;;;-7.59;57.54
65384;BME280;51986;52.788;41.368;2024-02-26T03:33:22;101205.66;;;-7.53;56.97
65384;BME280;51986;52.788;41.368;2024-02-26T03:35:49;101203.88;;;-7.53;57.47
65384;BME280;51986;52.788;41.368;2024-02-26T03:38:16;101211.13;;;-7.61;57.06
65384;BME280;51986;52.788;41.368;2024-02-26T03:40:43;101215.44;;;-7.50;57.13
65384;BME280;51986;52.788;41.368;2024-02-26T03:43:10;101234.00;;;-7.31;56.83
65384;BME280;51986;52.788;41.368;2024-02-26T03:45:37;101221.59;;;-7.63;56.96
65384;BME280;51986;52.788;41.368;2024-02-26T03:48:04;101202.19;;;-7.59;56.98
65384;BME280;51986;52.788;41.368;2024-02-26T03:50:32;101239.19;;;-7.55;57.18
65384;BME280;51986;52.788;41.368;2024-02-26T03:52:59;101213.56;;;-7.55;57.29
65384;BME280;51986;52.788;41.368;2024-02-26T03:55:26;101236.91;;;-7.39;57.24
65384;BME280;51986;52.788;41.368;2024-02-26T03:57:52;101217.44;;;-7.64;56.67
65384;BME280;51986;52.788;41.368;2024-02-26T04:00:20;101223.13;;;-7.38;56.47
65384;BME280;51986;52.788;41.368;2024-02-26T04:02:49;101201.31;;;-7.53;56.57
65384;BME280;51986;52.788;41.368;2024-02-26T04:05:16;101226.47;;;-7.50;57.07
65384;BME280;51986;52.788;41.368;2024-02-26T04:07:43;101218.69;;;-7.55;56.67
65384;BME280;51986;52.788;41.368;2024-02-26T04:10:11;101203.31;;;-7.43;56.29
65384;BME280;51986;52.788;41.368;2024-02-26T04:12:41;101218.13;;;-7.68;56.78
65384;BME280;51986;52.788;41.368;2024-02-26T04:15:09;101214.22;;;-7.48;56.68
65384;BME280;51986;52.788;41.368;2024-02-26T04:17:38;101222.34;;;-7.51;57.06
65384;BME280;51986;52.788;41.368;2024-02-26T04:20:06;101213.78;;;-7.68;56.92
65384;BME280;51986;52.788;41.368;2024-02-26T04:22:33;101222.38;;;-7.62;56.98
65384;BME280;51986;52.788;41.368;2024-02-26T04:25:00;101222.69;;;-7.59;57.37
65384;BME280;51986;52.788;41.368;2024-02-26T04:27:27;101224.25;;;-7.70;57.29
65384;BME280;51986;52.788;41.368;2024-02-26T04:29:54;101232.06;;;-7.53;56.86
65384;BME280;51986;52.788;41.368;2024-02-26T04:32:22;101212.44;;;-7.59;56.76
65384;BME280;51986;52.788;41.368;2024-02-26T04:34:49;101197.88;;;-7.30;56.66
65384;BME280;51986;52.788;41.368;2024-02-26T04:37:16;101245.94;;;-7.25;56.44
65384;BME280;51986;52.788;41.368;2024-02-26T04:39:43;101243.59;;;-7.15;55.84
65384;BME280;51986;52.788;41.368;2024-02-26T04:42:13;101207.22;;;-7.12;55.03
65384;BME280;51986;52.788;41.368;2024-02-26T04:44:40;101226.38;;;-7.03;55.09
65384;BME280;51986;52.788;41.368;2024-02-26T04:47:07;101244.38;;;-7.26;55.74
65384;BME280;51986;52.788;41.368;2024-02-26T04:49:34;101234.19;;;-6.98;54.92
65384;BME280;51986;52.788;41.368;2024-02-26T04:52:01;101237.63;;;-6.92;55.15
65384;BME280;51986;52.788;41.368;2024-02-26T04:54:28;101234.75;;;-6.96;55.46
65384;BME280;51986;52.788;41.368;2024-02-26T04:56:55;101191.31;;;-6.85;54.92
65384;BME280;51986;52.788;41.368;2024-02-26T04:59:22;101228.47;;;-6.88;54.58
65384;BME280;51986;52.788;41.368;2024-02-26T05:01:49;101226.00;;;-6.54;54.26
65384;BME280;51986;52.788;41.368;2024-02-26T05:04:16;101228.78;;;-6.27;53.13
65384;BME280;51986;52.788;41.368;2024-02-26T05:06:43;101213.38;;;-6.27;53.60
65384;BME280;51986;52.788;41.368;2024-02-26T05:09:10;101233.63;;;-6.14;52.85
65384;BME280;51986;52.788;41.368;2024-02-26T05:11:37;101226.25;;;-5.94;52.41
65384;BME280;51986;52.788;41.368;2024-02-26T05:14:08;101229.09;;;-5.56;51.53
65384;BME280;51986;52.788;41.368;2024-02-26T05:16:35;101200.97;;;-5.63;51.25
65384;BME280;51986;52.788;41.368;2024-02-26T05:19:02;101203.13;;;-5.94;51.66
65384;BME280;51986;52.788;41.368;2024-02-26T05:21:29;101204.03;;;-6.33;51.64
65384;BME280;51986;52.788;41.368;2024-02-26T05:23:56;101199.53;;;-6.09;51.36
65384;BME280;51986;52.788;41.368;2024-02-26T05:26:23;101207.81;;;-5.91;51.75
65384;BME280;51986;52.788;41.368;2024-02-26T05:28:50;101218.47;;;-5.99;51.52
65384;BME280;51986;52.788;41.368;2024-02-26T05:31:18;101202.47;;;-5.67;51.01
65384;BME280;51986;52.788;41.368;2024-02-26T05:33:45;101230.28;;;-5.64;50.71
65384;BME280;51986;52.788;41.368;2024-02-26T05:36:21;101230.75;;;-5.67;50.67
65384;BME280;51986;52.788;41.368;2024-02-26T05:38:48;101220.53;;;-5.62;50.44
65384;BME280;51986;52.788;41.368;2024-02-26T05:41:16;101223.75;;;-5.33;50.17
65384;BME280;51986;52.788;41.368;2024-02-26T05:43:44;101233.38;;;-5.45;49.62
65384;BME280;51986;52.788;41.368;2024-02-26T05:46:11;101199.22;;;-5.41;49.92
65384;BME280;51986;52.788;41.368;2024-02-26T05:48:38;101212.22;;;-5.30;49.31
65384;BME280;51986;52.788;41.368;2024-02-26T05:51:05;101224.47;;;-5.16;49.06
65384;BME280;51986;52.788;41.368;2024-02-26T05:53:32;101183.00;;;-4.75;48.00
65384;BME280;51986;52.788;41.368;2024-02-26T05:55:59;101225.13;;;-5.25;48.50
65384;BME280;51986;52.788;41.368;2024-02-26T05:58:26;101208.50;;;-4.96;48.60
65384;BME280;51986;52.788;41.368;2024-02-26T06:00:53;101220.66;;;-4.91;48.22
65384;BME280;51986;52.788;41.368;2024-02-26T06:03:20;101208.78;;;-4.70;48.03
65384;BME280;51986;52.788;41.368;2024-02-26T06:05:47;101209.50;;;-4.75;48.01
65384;BME280;51986;52.788;41.368;2024-02-26T06:08:14;101221.31;;;-4.79;47.80
65384;BME280;51986;52.788;41.368;2024-02-26T06:10:41;101208.97;;;-4.77;48.02
65384;BME280;51986;52.788;41.368;2024-02-26T06:13:08;101235.13;;;-5.07;47.80
65384;BME280;51986;52.788;41.368;2024-02-26T06:15:35;101213.66;;;-4.96;47.62
65384;BME280;51986;52.788;41.368;2024-02-26T06:18:03;101237.06;;;-4.48;46.47
65384;BME280;51986;52.788;41.368;2024-02-26T06:20:30;101223.69;;;-4.72;46.56
65384;BME280;51986;52.788;41.368;2024-02-26T06:22:57;101228.72;;;-4.82;46.63
65384;BME280;51986;52.788;41.368;2024-02-26T06:25:24;101233.97;;;-4.99;47.80
65384;BME280;51986;52.788;41.368;2024-02-26T06:27:51;101189.19;;;-4.71;46.71
65384;BME280;51986;52.788;41.368;2024-02-26T06:30:18;101211.56;;;-4.50;46.38
65384;BME280;51986;52.788;41.368;2024-02-26T06:32:45;101215.28;;;-4.36;45.96
65384;BME280;51986;52.788;41.368;2024-02-26T06:35:12;101205.25;;;-4.37;46.00
65384;BME280;51986;52.788;41.368;2024-02-26T06:37:39;101211.44;;;-4.33;46.42
65384;BME280;51986;52.788;41.368;2024-02-26T06:40:07;101233.66;;;-3.95;45.01
65384;BME280;51986;52.788;41.368;2024-02-26T06:42:35;101215.22;;;-3.76;45.19
65384;BME280;51986;52.788;41.368;2024-02-26T06:45:04;101215.28;;;-3.66;44.64
65384;BME280;51986;52.788;41.368;2024-02-26T06:47:31;101186.63;;;-3.75;45.01
65384;BME280;51986;52.788;41.368;2024-02-26T06:49:58;101194.41;;;-3.65;44.42
65384;BME280;51986;52.788;41.368;2024-02-26T06:52:26;101198.97;;;-3.29;43.82
65384;BME280;51986;52.788;41.368;2024-02-26T06:54:53;101189.22;;;-3.17;43.65
65384;BME280;51986;52.788;41.368;2024-02-26T06:57:20;101201.16;;;-2.86;42.67
65384;BME280;51986;52.788;41.368;2024-02-26T06:59:47;101211.59;;;-2.30;42.20
65384;BME280;51986;52.788;41.368;2024-02-26T07:02:14;101221.41;;;-1.86;40.67
65384;BME280;51986;52.788;41.368;2024-02-26T07:04:42;101216.00;;;-2.10;40.79
65384;BME280;51986;52.788;41.368;2024-02-26T07:07:09;101205.41;;;-1.93;40.28
65384;BME280;51986;52.788;41.368;2024-02-26T07:09:36;101174.88;;;-2.37;40.71
65384;BME280;51986;52.788;41.368;2024-02-26T07:12:03;101181.63;;;-2.41;41.15
65384;BME280;51986;52.788;41.368;2024-02-26T07:14:31;101221.41;;;-1.81;40.55
65384;BME280;51986;52.788;41.368;2024-02-26T07:16:58;101214.16;;;-1.73;39.81
65384;BME280;51986;52.788;41.368;2024-02-26T07:19:25;101191.44;;;-2.12;40.55
65384;BME280;51986;52.788;41.368;2024-02-26T07:21:52;101205.09;;;-1.71;39.54
65384;BME280;51986;52.788;41.368;2024-02-26T07:24:19;101203.00;;;-1.64;39.35
65384;BME280;51986;52.788;41.368;2024-02-26T07:26:46;101206.88;;;-1.61;39.25
65384;BME280;51986;52.788;41.368;2024-02-26T07:29:13;101178.94;;;-1.59;39.01
65384;BME280;51986;52.788;41.368;2024-02-26T07:31:40;101195.44;;;-1.40;39.05
65384;BME280;51986;52.788;41.368;2024-02-26T07:34:08;101216.66;;;-1.38;38.72
65384;BME280;51986;52.788;41.368;2024-02-26T07:36:35;101196.13;;;-1.19;39.03
65384;BME280;51986;52.788;41.368;2024-02-26T07:39:02;101215.50;;;-1.06;38.10
65384;BME280;51986;52.788;41.368;2024-02-26T07:41:29;101198.41;;;-1.12;37.96
65384;BME280;51986;52.788;41.368;2024-02-26T07:43:56;101172.13;;;-1.35;37.21
65384;BME280;51986;52.788;41.368;2024-02-26T07:46:23;101170.16;;;-1.04;37.04
65384;BME280;51986;52.788;41.368;2024-02-26T07:48:51;101198.13;;;-0.56;36.74
65384;BME280;51986;52.788;41.368;2024-02-26T07:51:18;101179.56;;;-0.68;36.41
65384;BME280;51986;52.788;41.368;2024-02-26T07:53:45;101185.56;;;-0.83;35.52
65384;BME280;51986;52.788;41.368;2024-02-26T07:56:12;101219.13;;;-1.02;35.64
65384;BME280;51986;52.788;41.368;2024-02-26T07:58:39;101219.91;;;-1.12;36.50
65384;BME280;51986;52.788;41.368;2024-02-26T08:01:06;101192.28;;;-1.32;36.45
65384;BME280;51986;52.788;41.368;2024-02-26T08:03:33;101211.34;;;-1.02;36.31
65384;BME280;51986;52.788;41.368;2024-02-26T08:06:01;101210.09;;;-0.65;36.00
65384;BME280;51986;52.788;41.368;2024-02-26T08:08:28;101188.78;;;-0.57;35.59
65384;BME280;51986;52.788;41.368;2024-02-26T08:10:55;101172.50;;;-1.02;35.59
65384;BME280;51986;52.788;41.368;2024-02-26T08:13:22;101187.41;;;-0.44;35.42
65384;BME280;51986;52.788;41.368;2024-02-26T08:15:49;101206.13;;;0.11;34.11
65384;BME280;51986;52.788;41.368;2024-02-26T08:18:17;101209.31;;;1.17;33.29
65384;BME280;51986;52.788;41.368;2024-02-26T08:20:44;101211.06;;;1.03;32.39
65384;BME280;51986;52.788;41.368;2024-02-26T08:23:11;101172.94;;;1.17;31.98
65384;BME280;51986;52.788;41.368;2024-02-26T08:25:38;101191.06;;;1.22;32.26
65384;BME280;51986;52.788;41.368;2024-02-26T08:28:05;101198.50;;;1.48;31.49
65384;BME280;51986;52.788;41.368;2024-02-26T08:30:32;101201.00;;;2.32;30.98
65384;BME280;51986;52.788;41.368;2024-02-26T08:32:59;101185.34;;;2.18;30.86
65384;BME280;51986;52.788;41.368;2024-02-26T08:35:27;101186.34;;;2.64;30.63
65384;BME280;51986;52.788;41.368;2024-02-26T08:37:54;101190.19;;;2.25;30.49
65384;BME280;51986;52.788;41.368;2024-02-26T08:40:21;101188.41;;;1.60;30.81
65384;BME280;51986;52.788;41.368;2024-02-26T08:42:48;101178.66;;;1.19;31.53
65384;BME280;51986;52.788;41.368;2024-02-26T08:45:15;101179.56;;;1.28;31.34
65384;BME280;51986;52.788;41.368;2024-02-26T08:47:44;101175.81;;;0.97;32.00
65384;BME280;51986;52.788;41.368;2024-02-26T08:50:14;101161.84;;;1.30;31.12
65384;BME280;51986;52.788;41.368;2024-02-26T08:52:41;101178.28;;;1.07;31.84
65384;BME280;51986;52.788;41.368;2024-02-26T08:55:08;101158.97;;;0.75;32.15
65384;BME280;51986;52.788;41.368;2024-02-26T08:57:35;101202.19;;;0.66;31.50
65384;BME280;51986;52.788;41.368;2024-02-26T09:00:02;101173.75;;;0.56;32.06
65384;BME280;51986;52.788;41.368;2024-02-26T09:02:29;101183.91;;;0.28;32.76
65384;BME280;51986;52.788;41.368;2024-02-26T09:04:56;101166.91;;;0.60;32.87
65384;BME280;51986;52.788;41.368;2024-02-26T09:07:23;101186.44;;;0.58;32.28
65384;BME280;51986;52.788;41.368;2024-02-26T09:09:50;101139.16;;;0.37;32.84
65384;BME280;51986;52.788;41.368;2024-02-26T09:12:17;101167.41;;;0.19;32.94
65384;BME280;51986;52.788;41.368;2024-02-26T09:14:45;101157.00;;;0.43;32.80
65384;BME280;51986;52.788;41.368;2024-02-26T09:17:12;101151.41;;;-0.51;33.00
65384;BME280;51986;52.788;41.368;2024-02-26T09:19:39;101143.03;;;0.15;32.97
65384;BME280;51986;52.788;41.368;2024-02-26T09:22:06;101146.75;;;0.09;32.47
65384;BME280;51986;52.788;41.368;2024-02-26T09:24:33;101153.47;;;0.34;32.19
65384;BME280;51986;52.788;41.368;2024-02-26T09:27:00;101144.59;;;0.59;32.69
65384;BME280;51986;52.788;41.368;2024-02-26T09:29:30;101130.66;;;0.31;32.41
65384;BME280;51986;52.788;41.368;2024-02-26T09:31:57;101146.78;;;0.04;32.07
65384;BME280;51986;52.788;41.368;2024-02-26T09:34:24;101106.03;;;-0.19;32.81
65384;BME280;51986;52.788;41.368;2024-02-26T09:36:52;101120.44;;;-0.08;33.30
65384;BME280;51986;52.788;41.368;2024-02-26T09:39:22;101127.22;;;-0.12;32.66
65384;BME280;51986;52.788;41.368;2024-02-26T09:41:49;101130.88;;;-0.13;32.58
65384;BME280;51986;52.788;41.368;2024-02-26T09:44:19;101123.91;;;0.30;32.32
65384;BME280;51986;52.788;41.368;2024-02-26T09:46:48;101123.91;;;0.54;32.10
65384;BME280;51986;52.788;41.368;2024-02-26T09:49:15;101142.31;;;0.76;31.93
65384;BME280;51986;52.788;41.368;2024-02-26T09:51:43;101109.09;;;0.54;31.99
65384;BME280;51986;52.788;41.368;2024-02-26T09:54:10;101105.81;;;0.87;31.72
65384;BME280;51986;52.788;41.368;2024-02-26T09:56:39;101124.09;;;0.39;31.64
65384;BME280;51986;52.788;41.368;2024-02-26T09:59:22;101116.03;;;0.59;31.81
65384;BME280;51986;52.788;41.368;2024-02-26T10:01:49;101109.84;;;0.55;31.86
65384;BME280;51986;52.788;41.368;2024-02-26T10:04:18;101133.59;;;0.67;31.88
65384;BME280;51986;52.788;41.368;2024-02-26T10:06:46;101109.63;;;0.33;31.55
65384;BME280;51986;52.788;41.368;2024-02-26T10:09:14;101103.91;;;0.54;32.31
65384;BME280;51986;52.788;41.368;2024-02-26T10:11:42;101120.91;;;-0.01;31.91
65384;BME280;51986;52.788;41.368;2024-02-26T10:14:10;101080.91;;;0.24;32.22
65384;BME280;51986;52.788;41.368;2024-02-26T10:16:37;101089.56;;;-0.34;32.39
65384;BME280;51986;52.788;41.368;2024-02-26T10:19:04;101079.34;;;0.04;32.96
65384;BME280;51986;52.788;41.368;2024-02-26T10:21:32;101111.09;;;0.39;32.73
65384;BME280;51986;52.788;41.368;2024-02-26T10:23:59;101070.50;;;0.05;32.33
65384;BME280;51986;52.788;41.368;2024-02-26T10:26:26;101059.81;;;0.07;33.21
65384;BME280;51986;52.788;41.368;2024-02-26T10:28:53;101061.22;;;0.23;32.34
65384;BME280;51986;52.788;41.368;2024-02-26T10:31:26;101079.13;;;0.43;31.66
65384;BME280;51986;52.788;41.368;2024-02-26T10:33:55;101088.13;;;0.27;31.99
65384;BME280;51986;52.788;41.368;2024-02-26T10:36:23;101074.25;;;0.18;32.27
65384;BME280;51986;52.788;41.368;2024-02-26T10:39:06;101068.75;;;0.62;31.27
65384;BME280;51986;52.788;41.368;2024-02-26T10:41:34;101078.56;;;0.65;31.91
65384;BME280;51986;52.788;41.368;2024-02-26T10:44:01;101073.03;;;0.72;31.90
65384;BME280;51986;52.788;41.368;2024-02-26T10:46:28;101100.03;;;0.09;31.74
65384;BME280;51986;52.788;41.368;2024-02-26T10:48:55;101079.09;;;0.00;32.33
65384;BME280;51986;52.788;41.368;2024-02-26T10:51:30;101037.41;;;0.16;32.57
65384;BME280;51986;52.788;41.368;2024-02-26T10:53:59;101059.81;;;0.07;32.30
65384;BME280;51986;52.788;41.368;2024-02-26T10:56:29;101081.22;;;0.60;32.23
65384;BME280;51986;52.788;41.368;2024-02-26T10:58:57;101061.50;;;0.59;32.18
65384;BME280;51986;52.788;41.368;2024-02-26T11:01:45;101088.75;;;0.80;31.96
65384;BME280;51986;52.788;41.368;2024-02-26T11:04:15;101068.94;;;0.28;32.07
65384;BME280;51986;52.788;41.368;2024-02-26T11:06:46;101063.00;;;0.22;31.88
65384;BME280;51986;52.788;41.368;2024-02-26T11:09:15;101062.03;;;0.18;31.92
65384;BME280;51986;52.788;41.368;2024-02-26T11:11:42;101064.16;;;0.35;31.99
65384;BME280;51986;52.788;41.368;2024-02-26T11:14:09;101067.94;;;0.24;32.12
65384;BME280;51986;52.788;41.368;2024-02-26T11:16:38;101041.63;;;0.30;32.01
65384;BME280;51986;52.788;41.368;2024-02-26T11:19:08;101060.97;;;0.62;31.47
65384;BME280;51986;52.788;41.368;2024-02-26T11:21:36;101061.22;;;0.79;32.03
65384;BME280;51986;52.788;41.368;2024-02-26T11:24:13;101053.31;;;1.03;31.64
65384;BME280;51986;52.788;41.368;2024-02-26T11:26:53;101030.03;;;0.79;31.20
65384;BME280;51986;52.788;41.368;2024-02-26T11:29:22;101053.03;;;0.72;31.39
65384;BME280;51986;52.788;41.368;2024-02-26T11:31:50;101055.06;;;0.38;31.75
65384;BME280;51986;52.788;41.368;2024-02-26T11:34:18;101040.09;;;0.29;31.29
65384;BME280;51986;52.788;41.368;2024-02-26T11:36:46;101066.88;;;0.25;32.02
65384;BME280;51986;52.788;41.368;2024-02-26T11:39:14;101035.78;;;0.01;32.69
65384;BME280;51986;52.788;41.368;2024-02-26T11:41:42;101051.94;;;0.36;32.56
65384;BME280;51986;52.788;41.368;2024-02-26T11:44:09;101049.72;;;0.29;32.63
65384;BME280;51986;52.788;41.368;2024-02-26T11:46:41;101054.41;;;0.46;32.86
65384;BME280;51986;52.788;41.368;2024-02-26T11:51:51;101027.97;;;0.63;32.93
65384;BME280;51986;52.788;41.368;2024-02-26T11:59:50;101028.97;;;0.05;32.33
65384;BME280;51986;52.788;41.368;2024-02-26T12:02:50;101041.44;;;0.03;32.57
65384;BME280;51986;52.788;41.368;2024-02-26T12:05:19;101034.19;;;-0.19;33.09
65384;BME280;51986;52.788;41.368;2024-02-26T12:10:31;101012.50;;;0.15;33.41
65384;BME280;51986;52.788;41.368;2024-02-26T12:13:00;101015.50;;;-0.21;33.33
65384;BME280;51986;52.788;41.368;2024-02-26T12:18:18;101019.16;;;0.02;32.79
65384;BME280;51986;52.788;41.368;2024-02-26T12:20:45;101011.53;;;0.11;33.58
65384;BME280;51986;52.788;41.368;2024-02-26T12:23:16;101011.94;;;-0.01;33.65
65384;BME280;51986;52.788;41.368;2024-02-26T12:25:43;100994.09;;;-0.08;33.72
65384;BME280;51986;52.788;41.368;2024-02-26T12:28:10;100974.63;;;-0.05;33.35
65384;BME280;51986;52.788;41.368;2024-02-26T12:30:37;100991.50;;;-0.08;33.61
65384;BME280;51986;52.788;41.368;2024-02-26T12:33:05;101000.50;;;-0.00;33.82
65384;BME280;51986;52.788;41.368;2024-02-26T12:35:32;100988.63;;;-0.25;33.98
65384;BME280;51986;52.788;41.368;2024-02-26T12:37:59;100978.63;;;-0.37;34.27
65384;BME280;51986;52.788;41.368;2024-02-26T12:40:26;100991.25;;;-0.54;33.98
65384;BME280;51986;52.788;41.368;2024-02-26T12:42:54;100991.38;;;-0.69;34.62
65384;BME280;51986;52.788;41.368;2024-02-26T12:45:21;100975.03;;;-0.65;34.49
65384;BME280;51986;52.788;41.368;2024-02-26T12:47:48;100976.41;;;-0.49;34.71
65384;BME280;51986;52.788;41.368;2024-02-26T12:50:16;100973.06;;;-0.49;34.25
65384;BME280;51986;52.788;41.368;2024-02-26T12:52:45;100984.50;;;-0.31;34.40
65384;BME280;51986;52.788;41.368;2024-02-26T12:55:14;100994.88;;;-0.31;34.84
65384;BME280;51986;52.788;41.368;2024-02-26T12:57:43;100991.91;;;-0.19;34.49
65384;BME280;51986;52.788;41.368;2024-02-26T13:00:21;100971.84;;;-0.33;34.26